Terminal Aerodrome Forecast
Issued by NWS

Home | Current Version | Previous Version | Text Only | Print | Product List | Glossary On
Versions: 1 2 3 4 5 6 7 8 9 10 11 12 13 14 15 16 17 18 19 20 21 22 23 24 25 26 27 28 29
000
FTAK31 PANC 290537
TAFAHO
TAF
PAHO 290537Z 2906/3006 21005KT P6SM SCT035 BKN050 OVC100
     FM290800 VRB03KT P6SM BKN060 OVC100
     FM292200 23008KT P6SM VCSH SCT035 BKN080
     FM300000 24005KT P6SM -SHRA SCT035 BKN060=

USA.gov is the U.S. government's official web portal to all federal, state and local government web resources and services.